Time;durP1;ratioP1;P1;durP2;ratioP2;P2;SDS_P1;SDS_P2;PMS_P1;PMS_P2;Temp;Humidity;BMP_temperature;BMP_pressure;BME280_temperature;BME280_humidity;BME280_pressure;Samples;Min_cycle;Max_cycle;Signal;HPM_P1;HPM_P2
2022/01/24 00:00:37;;;;;;;0.30;0.10;;;2.20;99.90;;;;;;5086949;28;20457;-89
2022/01/24 00:03:04;;;;;;;0.40;0.30;;;2.20;99.90;;;;;;5088480;28;20450;-87
2022/01/24 00:05:31;;;;;;;0.30;0.10;;;2.20;99.90;;;;;;5089474;28;20442;-88
2022/01/24 00:07:58;;;;;;;0.30;0.20;;;2.20;99.90;;;;;;5089121;28;20499;-86
2022/01/24 00:10:28;;;;;;;0.30;0.10;;;2.20;99.90;;;;;;5088978;28;20195;-87
2022/01/24 00:13:15;;;;;;;0.30;0.10;;;2.20;99.90;;;;;;5087262;28;20458;-86
2022/01/24 00:15:54;;;;;;;0.30;0.20;;;2.20;99.90;;;;;;5088711;28;20858;-88
2022/01/24 00:26:40;;;;;;;0.40;0.40;;;2.20;99.90;;;;;;5089157;28;20460;-87
2022/01/24 00:26:49;;;;;;;0.30;0.10;;;2.20;99.90;;;;;;5088601;28;21194;-88
2022/01/24 00:29:18;;;;;;;0.30;0.10;;;2.20;99.90;;;;;;5089361;28;20568;-86
2022/01/24 00:31:45;;;;;;;0.30;0.10;;;2.20;99.90;;;;;;5088390;28;20453;-86
2022/01/24 00:34:12;;;;;;;0.40;0.23;;;2.20;99.90;;;;;;5086146;28;20586;-86
2022/01/24 00:36:40;;;;;;;0.30;0.10;;;2.20;99.90;;;;;;5089370;28;20478;-86
2022/01/24 00:39:08;;;;;;;1.50;0.60;;;2.20;99.90;;;;;;5085495;28;20568;-86
2022/01/24 00:41:45;;;;;;;0.40;0.30;;;2.20;99.90;;;;;;5088608;28;20495;-86
2022/01/24 00:44:37;;;;;;;0.37;0.27;;;2.20;99.90;;;;;;5086969;28;20465;-86
2022/01/24 00:47:10;;;;;;;0.30;0.10;;;2.20;99.90;;;;;;5088857;28;20484;-86
2022/01/24 00:49:49;;;;;;;0.40;0.20;;;2.20;99.90;;;;;;5089202;28;20451;-90
2022/01/24 00:55:01;;;;;;;0.30;0.10;;;2.20;99.90;;;;;;5087781;28;20492;-85
2022/01/24 00:57:28;;;;;;;0.30;0.10;;;2.20;99.90;;;;;;5087005;28;20487;-86
2022/01/24 00:59:56;;;;;;;0.40;0.30;;;2.20;99.90;;;;;;5092054;28;20493;-86
2022/01/24 01:02:24;;;;;;;0.63;0.63;;;2.10;99.90;;;;;;5113779;28;20438;-88
2022/01/24 01:05:04;;;;;;;0.30;0.10;;;2.10;99.90;;;;;;5108374;28;20492;-85
2022/01/24 01:07:38;;;;;;;0.30;0.10;;;2.10;99.90;;;;;;5104920;28;20429;-85
2022/01/24 01:18:21;;;;;;;0.30;0.10;;;2.10;99.90;;;;;;5092195;28;20446;-85
2022/01/24 01:21:07;;;;;;;0.30;0.10;;;2.10;99.90;;;;;;5084440;28;20439;-88
2022/01/24 01:23:37;;;;;;;0.30;0.10;;;2.20;99.90;;;;;;5090530;28;20922;-88
2022/01/24 01:26:09;;;;;;;0.30;0.10;;;2.20;99.90;;;;;;5090955;28;20550;-86
2022/01/24 01:28:37;;;;;;;0.30;0.10;;;2.20;99.90;;;;;;5092403;28;20446;-86
2022/01/24 01:31:12;;;;;;;0.40;0.40;;;2.20;99.90;;;;;;5102691;28;20466;-84
2022/01/24 01:33:52;;;;;;;0.30;0.10;;;2.20;99.90;;;;;;5111026;28;20453;-89
2022/01/24 01:36:27;;;;;;;0.30;0.10;;;2.20;99.90;;;;;;5109293;28;20500;-90
2022/01/24 01:39:34;;;;;;;0.93;0.93;;;2.20;99.90;;;;;;5107461;28;20466;-85
2022/01/24 01:53:23;;;;;;;0.30;0.10;;;2.20;99.90;;;;;;5099181;28;20500;-88
2022/01/24 01:55:50;;;;;;;0.30;0.10;;;2.20;99.90;;;;;;5100395;28;20482;-87
2022/01/24 01:58:20;;;;;;;0.30;0.10;;;2.20;99.90;;;;;;5089113;28;20883;-87
2022/01/24 02:00:49;;;;;;;0.30;0.10;;;2.20;99.90;;;;;;5091167;28;20929;-87
2022/01/24 02:03:18;;;;;;;0.30;0.20;;;2.20;99.90;;;;;;5086976;28;20444;-87
2022/01/24 02:05:45;;;;;;;0.30;0.10;;;2.20;99.90;;;;;;5080351;28;20443;-90
2022/01/24 02:08:12;;;;;;;0.67;0.67;;;2.20;99.90;;;;;;5085930;28;20479;-86
2022/01/24 02:10:42;;;;;;;0.30;0.10;;;2.20;99.90;;;;;;5088721;28;20446;-88
2022/01/24 02:13:09;;;;;;;0.30;0.20;;;2.20;99.90;;;;;;5081485;28;20541;-87
2022/01/24 02:15:45;;;;;;;0.30;0.10;;;2.20;99.90;;;;;;5086289;28;20443;-88
2022/01/24 02:18:24;;;;;;;0.30;0.10;;;2.20;99.90;;;;;;5089408;28;20328;-87
2022/01/24 02:21:09;;;;;;;0.30;0.10;;;2.20;99.90;;;;;;5087992;28;20952;-87
2022/01/24 02:23:42;;;;;;;0.30;0.20;;;2.10;99.90;;;;;;5089844;28;20469;-88
2022/01/24 02:26:12;;;;;;;0.30;0.10;;;2.20;99.90;;;;;;5090737;28;20457;-90
2022/01/24 02:28:58;;;;;;;0.30;0.10;;;2.10;99.90;;;;;;5091865;28;20449;-86
2022/01/24 02:34:21;;;;;;;0.30;0.23;;;2.10;99.90;;;;;;5085975;28;20454;-87
2022/01/24 02:36:48;;;;;;;0.30;0.10;;;2.10;99.90;;;;;;5099084;28;20507;-87
2022/01/24 02:39:43;;;;;;;0.30;0.10;;;2.10;99.90;;;;;;5116269;28;20451;-87
2022/01/24 02:50:42;;;;;;;0.30;0.20;;;2.10;99.90;;;;;;5082830;28;20431;-87
2022/01/24 02:53:09;;;;;;;0.30;0.10;;;2.20;99.90;;;;;;5090346;28;20533;-91
2022/01/24 02:55:38;;;;;;;0.30;0.10;;;2.20;99.90;;;;;;5083942;28;20493;-87
2022/01/24 02:58:06;;;;;;;0.30;0.20;;;2.20;99.90;;;;;;5090609;28;20547;-87
2022/01/24 03:00:34;;;;;;;0.30;0.10;;;2.20;99.90;;;;;;5089129;28;20524;-88
2022/01/24 03:03:01;;;;;;;0.30;0.10;;;2.10;99.90;;;;;;5090632;28;20454;-86
2022/01/24 03:05:28;;;;;;;0.30;0.10;;;2.20;99.90;;;;;;5087486;28;20814;-87
2022/01/24 03:07:55;;;;;;;0.30;0.10;;;2.10;99.90;;;;;;5090253;28;20516;-87
2022/01/24 03:10:28;;;;;;;0.30;0.20;;;2.20;99.90;;;;;;5088101;28;20784;-86
2022/01/24 03:13:10;;;;;;;0.70;0.70;;;2.30;99.90;;;;;;5089907;28;20439;-86
2022/01/24 03:15:38;;;;;;;0.30;0.10;;;2.20;99.90;;;;;;5090274;28;20472;-87
2022/01/24 03:18:05;;;;;;;0.30;0.10;;;2.20;99.90;;;;;;5086623;28;21060;-87
2022/01/24 03:20:33;;;;;;;0.30;0.10;;;2.20;99.90;;;;;;5090132;28;20439;-87
2022/01/24 03:23:00;;;;;;;0.30;0.10;;;2.20;99.90;;;;;;5088669;28;20807;-90
2022/01/24 03:25:28;;;;;;;0.30;0.10;;;2.20;99.90;;;;;;5089922;28;20461;-87
2022/01/24 03:27:56;;;;;;;0.30;0.20;;;2.20;99.90;;;;;;5090463;28;20447;-86
2022/01/24 03:30:24;;;;;;;0.30;0.20;;;2.10;99.90;;;;;;5089123;28;20528;-88
2022/01/24 03:32:52;;;;;;;0.30;0.20;;;2.10;99.90;;;;;;5089129;28;20532;-87
2022/01/24 03:35:19;;;;;;;0.30;0.10;;;2.10;99.90;;;;;;5090350;28;20515;-88
2022/01/24 03:37:46;;;;;;;0.30;0.10;;;2.10;99.90;;;;;;5088166;28;20519;-87
2022/01/24 03:40:13;;;;;;;0.30;0.10;;;2.10;99.90;;;;;;5088972;28;20447;-87
2022/01/24 03:42:41;;;;;;;0.30;0.10;;;2.10;99.90;;;;;;5088142;28;20502;-86
2022/01/24 03:45:11;;;;;;;0.30;0.13;;;2.10;99.90;;;;;;5085575;28;20437;-87
2022/01/24 03:47:55;;;;;;;0.30;0.10;;;2.10;99.90;;;;;;5087937;28;20537;-86
2022/01/24 03:50:22;;;;;;;0.30;0.10;;;2.10;99.90;;;;;;5088065;28;20808;-86
2022/01/24 03:52:49;;;;;;;0.30;0.10;;;2.10;99.90;;;;;;5088900;28;20473;-89
2022/01/24 03:55:16;;;;;;;0.30;0.20;;;2.10;99.90;;;;;;5088779;28;20538;-86
2022/01/24 03:57:43;;;;;;;0.30;0.10;;;2.20;99.90;;;;;;5089424;28;20594;-86
2022/01/24 04:00:16;;;;;;;0.30;0.10;;;2.20;99.90;;;;;;5088770;28;20459;-87
2022/01/24 04:02:43;;;;;;;0.73;0.73;;;2.20;99.90;;;;;;5087707;28;20463;-86
2022/01/24 04:05:11;;;;;;;0.30;0.10;;;2.20;99.90;;;;;;5089618;28;20443;-86
2022/01/24 04:07:38;;;;;;;0.53;0.50;;;2.30;99.90;;;;;;5088469;28;21038;-89
2022/01/24 04:10:07;;;;;;;0.30;0.10;;;2.20;99.90;;;;;;5088789;28;20462;-87
2022/01/24 04:12:37;;;;;;;0.30;0.10;;;2.20;99.90;;;;;;5085599;28;20461;-86
2022/01/24 04:15:13;;;;;;;0.30;0.20;;;2.20;99.90;;;;;;5098078;28;20469;-86
2022/01/24 04:17:45;;;;;;;0.30;0.10;;;2.10;99.90;;;;;;5113615;28;20527;-85
2022/01/24 04:22:59;;;;;;;0.30;0.20;;;2.20;99.90;;;;;;5101524;28;20430;-87
2022/01/24 04:25:26;;;;;;;0.30;0.10;;;2.20;99.90;;;;;;5084138;28;20453;-86
2022/01/24 04:27:55;;;;;;;0.30;0.10;;;2.20;99.90;;;;;;5083869;28;21000;-89
2022/01/24 04:30:23;;;;;;;0.30;0.10;;;2.20;99.90;;;;;;5087079;28;20441;-89
2022/01/24 04:32:51;;;;;;;0.30;0.10;;;2.20;99.90;;;;;;5084285;28;21004;-87
2022/01/24 04:35:19;;;;;;;0.30;0.10;;;2.10;99.90;;;;;;5089161;28;20435;-86
2022/01/24 04:37:46;;;;;;;0.30;0.10;;;2.20;99.90;;;;;;5085761;28;20531;-86
2022/01/24 04:40:13;;;;;;;0.30;0.10;;;2.10;99.90;;;;;;5088574;28;20841;-87
2022/01/24 04:42:47;;;;;;;0.30;0.20;;;2.10;99.90;;;;;;5087995;28;20451;-86
2022/01/24 04:51:03;;;;;;;0.30;0.10;;;2.20;99.90;;;;;;5087885;28;21047;-88
2022/01/24 04:56:11;;;;;;;0.30;0.10;;;2.30;99.90;;;;;;5087361;28;20921;-88
2022/01/24 04:58:38;;;;;;;0.30;0.10;;;2.20;99.90;;;;;;5091090;28;20498;-87
2022/01/24 05:01:05;;;;;;;0.30;0.20;;;2.20;99.90;;;;;;5091468;28;20458;-89
2022/01/24 05:03:33;;;;;;;0.30;0.10;;;2.10;99.90;;;;;;5088472;28;21029;-88
2022/01/24 05:06:01;;;;;;;0.30;0.10;;;2.10;99.90;;;;;;5090670;28;20462;-87
2022/01/24 05:08:28;;;;;;;0.30;0.17;;;2.00;99.90;;;;;;5088570;28;20590;-86
2022/01/24 05:11:03;;;;;;;0.30;0.10;;;1.90;99.90;;;;;;5092509;28;20446;-87
2022/01/24 05:24:39;;;;;;;0.30;0.10;;;2.00;99.90;;;;;;5077384;28;20447;-90
2022/01/24 05:27:07;;;;;;;0.30;0.10;;;2.00;99.90;;;;;;5092180;28;20471;-89
2022/01/24 05:29:34;;;;;;;0.30;0.10;;;2.00;99.90;;;;;;5090885;28;20463;-88
2022/01/24 05:32:01;;;;;;;0.30;0.10;;;2.00;99.90;;;;;;5092060;28;20499;-87
2022/01/24 05:34:29;;;;;;;0.30;0.20;;;2.00;99.90;;;;;;5088863;28;20798;-86
2022/01/24 05:36:56;;;;;;;0.30;0.10;;;2.00;99.90;;;;;;5091523;28;20488;-86
2022/01/24 05:39:24;;;;;;;0.30;0.10;;;2.00;99.90;;;;;;5090896;28;20458;-86
2022/01/24 05:41:51;;;;;;;0.30;0.10;;;2.00;99.90;;;;;;5088649;28;20512;-86
2022/01/24 05:44:17;;;;;;;0.30;0.10;;;2.00;99.90;;;;;;5089686;28;20504;-86
2022/01/24 05:46:44;;;;;;;0.50;0.50;;;2.00;99.90;;;;;;5089875;28;21068;-87
2022/01/24 05:49:11;;;;;;;0.30;0.10;;;1.90;99.90;;;;;;5090517;28;21371;-86
2022/01/24 05:51:40;;;;;;;0.30;0.10;;;1.90;99.90;;;;;;5096843;28;20476;-88
2022/01/24 05:54:07;;;;;;;0.30;0.10;;;1.90;99.90;;;;;;5113891;28;20465;-90
2022/01/24 05:56:35;;;;;;;0.30;0.10;;;1.90;99.90;;;;;;5109710;28;20502;-87
2022/01/24 05:59:02;;;;;;;0.30;0.20;;;1.90;99.90;;;;;;5106852;28;20548;-91
2022/01/24 06:01:29;;;;;;;0.30;0.10;;;2.00;99.90;;;;;;5100928;28;20513;-89
2022/01/24 06:03:56;;;;;;;0.30;0.10;;;1.90;99.90;;;;;;5092154;28;20503;-90
2022/01/24 06:06:23;;;;;;;0.30;0.10;;;1.90;99.90;;;;;;5092877;28;20467;-90
2022/01/24 06:08:51;;;;;;;0.30;0.10;;;1.90;99.90;;;;;;5092363;28;20431;-90
2022/01/24 06:11:19;;;;;;;0.30;0.10;;;1.90;99.90;;;;;;5092196;28;20477;-89
2022/01/24 06:13:50;;;;;;;0.30;0.20;;;2.00;99.90;;;;;;5078888;28;20460;-89
2022/01/24 06:16:17;;;;;;;0.30;0.10;;;1.90;99.90;;;;;;5088219;28;20455;-90
2022/01/24 06:18:44;;;;;;;0.30;0.20;;;2.00;99.90;;;;;;5086960;28;20482;-88
2022/01/24 06:21:11;;;;;;;0.30;0.10;;;2.00;99.90;;;;;;5091318;28;20439;-91
2022/01/24 06:23:38;;;;;;;0.30;0.10;;;2.00;99.90;;;;;;5090490;28;20512;-88
2022/01/24 06:26:07;;;;;;;0.77;0.77;;;1.90;99.90;;;;;;5091834;28;20511;-89
2022/01/24 06:28:34;;;;;;;0.30;0.10;;;1.90;99.90;;;;;;5091415;28;20439;-89
2022/01/24 06:31:01;;;;;;;0.30;0.10;;;1.90;99.90;;;;;;5090481;28;20446;-89
2022/01/24 06:33:28;;;;;;;1.80;1.20;;;1.90;99.90;;;;;;5089778;28;20501;-89
2022/01/24 06:35:55;;;;;;;0.30;0.10;;;1.90;99.90;;;;;;5091167;28;20461;-89
2022/01/24 06:38:22;;;;;;;0.30;0.10;;;2.00;99.90;;;;;;5071481;28;21015;-89
2022/01/24 06:40:49;;;;;;;0.30;0.20;;;2.00;99.90;;;;;;5070150;28;20446;-89
2022/01/24 06:43:17;;;;;;;0.30;0.10;;;2.00;99.90;;;;;;5071879;28;20474;-89
2022/01/24 06:45:44;;;;;;;0.40;0.30;;;2.00;99.90;;;;;;5079722;28;20466;-89
2022/01/24 06:48:11;;;;;;;0.40;0.30;;;1.90;99.90;;;;;;5088404;28;20936;-89
2022/01/24 06:50:38;;;;;;;0.30;0.10;;;1.90;99.90;;;;;;5090779;28;20196;-91
2022/01/24 06:53:05;;;;;;;0.40;0.40;;;1.90;99.90;;;;;;5087445;28;20208;-91
2022/01/24 06:55:33;;;;;;;0.30;0.20;;;1.90;99.90;;;;;;5090956;28;20230;-89
2022/01/24 06:58:00;;;;;;;0.40;0.30;;;1.90;99.90;;;;;;5090169;28;20502;-89
2022/01/24 07:00:30;;;;;;;0.30;0.10;;;1.80;99.90;;;;;;5091642;28;20488;-90
2022/01/24 07:02:59;;;;;;;0.30;0.10;;;1.80;99.90;;;;;;5089808;28;20459;-89
2022/01/24 07:05:27;;;;;;;0.30;0.10;;;1.90;99.90;;;;;;5089828;28;22346;-87
2022/01/24 07:07:56;;;;;;;0.30;0.10;;;2.00;99.90;;;;;;5090600;28;20936;-89
2022/01/24 07:10:24;;;;;;;0.30;0.10;;;1.90;99.90;;;;;;5090532;28;20208;-89
2022/01/24 07:12:51;;;;;;;0.30;0.10;;;2.00;99.90;;;;;;5089784;28;20810;-88
2022/01/24 07:15:20;;;;;;;0.30;0.10;;;2.00;99.90;;;;;;5090460;28;20534;-89
2022/01/24 07:18:16;;;;;;;0.40;0.30;;;1.90;99.90;;;;;;5090581;28;20544;-88
2022/01/24 07:20:43;;;;;;;0.30;0.10;;;1.90;99.90;;;;;;5089676;28;20529;-90
2022/01/24 07:23:10;;;;;;;0.83;0.83;;;1.90;99.90;;;;;;5082136;28;20517;-90
2022/01/24 07:25:37;;;;;;;1.23;1.23;;;2.00;99.90;;;;;;5069834;28;20439;-90
2022/01/24 07:28:04;;;;;;;0.37;0.20;;;2.00;99.90;;;;;;5070064;28;20544;-89
2022/01/24 07:30:31;;;;;;;0.30;0.20;;;1.90;99.90;;;;;;5080395;28;20420;-90
2022/01/24 07:33:00;;;;;;;0.30;0.10;;;1.90;99.90;;;;;;5104360;28;20451;-91
2022/01/24 07:35:27;;;;;;;0.30;0.20;;;1.90;99.90;;;;;;5105714;28;20443;-88
2022/01/24 07:37:54;;;;;;;0.30;0.20;;;1.90;99.90;;;;;;5106397;28;20539;-90
2022/01/24 07:40:22;;;;;;;0.30;0.10;;;2.00;99.90;;;;;;5092199;28;20445;-88
2022/01/24 07:42:55;;;;;;;0.30;0.20;;;2.10;99.90;;;;;;5084835;28;20465;-89
2022/01/24 07:45:26;;;;;;;0.30;0.10;;;2.10;99.90;;;;;;5085534;28;20827;-89
2022/01/24 07:47:54;;;;;;;0.30;0.10;;;2.20;99.90;;;;;;5090039;28;20446;-89
2022/01/24 07:50:24;;;;;;;0.30;0.10;;;2.20;99.90;;;;;;5091073;28;20439;-89
2022/01/24 07:52:51;;;;;;;0.30;0.10;;;2.30;99.90;;;;;;5090591;28;20466;-89
2022/01/24 07:55:18;;;;;;;0.80;0.80;;;2.30;99.90;;;;;;5090174;28;20484;-91
2022/01/24 07:57:45;;;;;;;0.30;0.20;;;2.30;99.90;;;;;;5089608;28;20781;-89
2022/01/24 08:00:13;;;;;;;0.30;0.10;;;2.40;99.90;;;;;;5089074;28;20539;-90
2022/01/24 08:02:40;;;;;;;0.30;0.20;;;2.50;99.90;;;;;;5089745;28;20520;-91
2022/01/24 08:05:09;;;;;;;0.30;0.10;;;2.60;99.90;;;;;;5088663;28;20507;-91
2022/01/24 08:07:38;;;;;;;0.30;0.10;;;2.70;99.90;;;;;;5089816;28;20707;-91
2022/01/24 08:10:07;;;;;;;0.30;0.17;;;2.70;99.90;;;;;;5084051;28;20459;-91
2022/01/24 08:12:35;;;;;;;0.30;0.17;;;2.70;99.90;;;;;;5086319;28;20467;-91
2022/01/24 08:15:02;;;;;;;0.30;0.10;;;2.90;99.90;;;;;;5088778;28;20584;-91
2022/01/24 08:17:30;;;;;;;0.30;0.10;;;2.90;99.90;;;;;;5089073;28;20451;-92
2022/01/24 08:19:57;;;;;;;0.30;0.10;;;2.90;99.90;;;;;;5089046;28;20524;-92
2022/01/24 08:22:25;;;;;;;0.60;0.60;;;2.90;99.90;;;;;;5072759;28;20452;-91
2022/01/24 08:24:53;;;;;;;0.30;0.20;;;2.90;99.90;;;;;;5071140;28;20585;-91
2022/01/24 08:27:20;;;;;;;0.50;0.23;;;3.00;99.90;;;;;;5082113;28;20854;-91
2022/01/24 08:29:49;;;;;;;1.00;0.90;;;3.10;99.90;;;;;;5069635;28;20501;-91
2022/01/24 08:32:16;;;;;;;0.40;0.40;;;3.00;99.90;;;;;;5068170;28;20907;-91
2022/01/24 08:34:43;;;;;;;0.30;0.20;;;3.10;99.90;;;;;;5068934;28;20459;-91
2022/01/24 08:37:10;;;;;;;1.47;0.70;;;3.30;99.90;;;;;;5070031;28;20525;-90
2022/01/24 08:39:37;;;;;;;1.23;0.63;;;3.40;99.90;;;;;;5081025;28;20479;-91
2022/01/24 08:42:14;;;;;;;0.77;0.77;;;3.30;99.90;;;;;;5081107;28;20991;-91
2022/01/24 08:47:29;;;;;;;1.40;1.33;;;3.50;99.90;;;;;;5088842;28;20426;-92
2022/01/24 08:49:56;;;;;;;0.30;0.10;;;3.50;99.90;;;;;;5081138;28;20494;-90
2022/01/24 08:52:24;;;;;;;0.40;0.20;;;3.50;99.90;;;;;;5069914;28;20521;-90
2022/01/24 08:54:51;;;;;;;0.30;0.30;;;3.50;99.90;;;;;;5068997;28;20459;-91
2022/01/24 08:57:24;;;;;;;0.30;0.10;;;3.50;99.90;;;;;;5068509;28;20452;-90
2022/01/24 08:59:52;;;;;;;0.50;0.40;;;3.50;99.90;;;;;;5069317;28;20570;-90
2022/01/24 09:02:19;;;;;;;0.30;0.20;;;3.60;99.90;;;;;;5068090;28;20496;-90
2022/01/24 09:04:46;;;;;;;0.30;0.30;;;3.60;99.90;;;;;;5068553;28;20459;-91
2022/01/24 09:07:17;;;;;;;0.30;0.10;;;3.70;99.90;;;;;;5070193;28;20916;-91
2022/01/24 09:09:45;;;;;;;0.30;0.10;;;3.80;99.90;;;;;;5109395;28;20446;-91
2022/01/24 09:12:13;;;;;;;0.30;0.10;;;3.90;99.90;;;;;;5111000;28;20462;-91
2022/01/24 09:14:44;;;;;;;0.30;0.23;;;3.90;99.90;;;;;;5109656;28;20443;-91
2022/01/24 09:17:11;;;;;;;0.30;0.10;;;4.00;99.90;;;;;;5099245;28;20969;-90
2022/01/24 09:19:39;;;;;;;0.40;0.30;;;3.90;99.90;;;;;;5090393;28;20482;-90
2022/01/24 09:22:06;;;;;;;0.30;0.10;;;3.90;99.90;;;;;;5089855;28;20438;-91
2022/01/24 09:24:34;;;;;;;0.30;0.20;;;3.80;99.90;;;;;;5089366;28;21304;-90
2022/01/24 09:27:01;;;;;;;0.30;0.10;;;3.70;99.90;;;;;;5088917;28;20854;-92
2022/01/24 09:29:28;;;;;;;0.30;0.20;;;3.80;99.90;;;;;;5086934;28;20504;-90
2022/01/24 09:31:57;;;;;;;1.70;1.50;;;3.90;99.90;;;;;;5082358;28;20462;-91
2022/01/24 09:34:24;;;;;;;0.30;0.20;;;3.90;99.90;;;;;;5089079;28;20484;-91
2022/01/24 09:36:52;;;;;;;0.30;0.20;;;3.90;99.90;;;;;;5087704;28;20500;-91
2022/01/24 09:39:20;;;;;;;1.77;0.47;;;4.00;99.90;;;;;;5090887;28;20626;-90
2022/01/24 09:41:47;;;;;;;0.30;0.10;;;4.10;99.90;;;;;;5092442;28;20974;-91
2022/01/24 09:44:15;;;;;;;0.40;0.27;;;4.10;99.90;;;;;;5079049;28;20513;-93
2022/01/24 09:46:44;;;;;;;0.67;0.67;;;4.10;99.90;;;;;;5093231;28;20829;-90
2022/01/24 09:49:13;;;;;;;0.30;0.10;;;4.10;99.90;;;;;;5083768;28;20529;-93
2022/01/24 09:51:40;;;;;;;0.30;0.10;;;4.10;99.90;;;;;;5091852;28;20470;-89
2022/01/24 09:54:09;;;;;;;0.30;0.20;;;4.10;99.90;;;;;;5091608;28;20451;-90
2022/01/24 09:56:36;;;;;;;0.30;0.20;;;4.20;99.90;;;;;;5084330;28;20516;-90
2022/01/24 09:59:03;;;;;;;0.30;0.10;;;4.20;99.90;;;;;;5091243;28;20495;-90
2022/01/24 10:01:32;;;;;;;0.30;0.20;;;4.10;99.90;;;;;;5091209;28;20452;-90
2022/01/24 10:04:07;;;;;;;0.30;0.20;;;4.10;99.90;;;;;;5089977;28;20439;-90
2022/01/24 10:06:57;;;;;;;0.30;0.10;;;4.20;99.90;;;;;;5089680;28;20519;-87
2022/01/24 10:09:38;;;;;;;0.30;0.10;;;4.30;99.90;;;;;;5090434;28;20934;-89
2022/01/24 10:12:19;;;;;;;0.30;0.10;;;4.40;99.90;;;;;;5090434;28;20467;-87
2022/01/24 10:17:33;;;;;;;0.30;0.20;;;4.80;99.90;;;;;;5091706;28;20561;-86
2022/01/24 10:20:22;;;;;;;0.30;0.10;;;4.90;99.90;;;;;;5089711;28;20490;-87
2022/01/24 10:23:10;;;;;;;0.30;0.20;;;5.00;99.90;;;;;;5091629;28;20447;-89
2022/01/24 10:25:49;;;;;;;0.30;0.20;;;5.00;99.90;;;;;;5091141;28;20875;-87
2022/01/24 10:28:30;;;;;;;0.30;0.10;;;5.10;99.90;;;;;;5079560;28;20981;-86
2022/01/24 10:31:10;;;;;;;0.43;0.43;;;5.10;99.90;;;;;;5073315;28;20596;-84
2022/01/24 10:34:01;;;;;;;0.50;0.30;;;5.20;99.90;;;;;;5091589;28;20446;-84
2022/01/24 10:36:36;;;;;;;0.30;0.20;;;5.10;99.90;;;;;;5091331;28;20454;-87
2022/01/24 10:39:32;;;;;;;0.30;0.10;;;5.10;99.90;;;;;;5091887;28;20559;-86
2022/01/24 10:42:52;;;;;;;0.30;0.20;;;5.20;99.90;;;;;;5087937;28;20876;-87
2022/01/24 10:45:22;;;;;;;0.63;0.30;;;5.40;99.90;;;;;;5084449;28;20479;-85
2022/01/24 10:47:52;;;;;;;0.30;0.20;;;5.30;99.90;;;;;;5110025;28;20425;-85
2022/01/24 10:50:24;;;;;;;0.73;0.73;;;5.40;99.90;;;;;;5108779;28;20443;-84
2022/01/24 10:52:53;;;;;;;0.30;0.20;;;5.40;99.90;;;;;;5100680;28;20438;-85
2022/01/24 10:55:24;;;;;;;0.50;0.33;;;5.30;99.90;;;;;;5077117;28;20506;-87
2022/01/24 10:57:57;;;;;;;0.50;0.50;;;5.30;99.90;;;;;;5071764;28;20532;-86
2022/01/24 11:00:26;;;;;;;0.40;0.23;;;5.40;99.90;;;;;;5082943;28;20482;-86
2022/01/24 11:02:54;;;;;;;0.30;0.10;;;5.20;99.90;;;;;;5079120;28;20966;-85
2022/01/24 11:05:24;;;;;;;0.30;0.20;;;5.30;99.90;;;;;;5070582;28;20460;-85
2022/01/24 11:07:53;;;;;;;0.60;0.60;;;5.40;99.90;;;;;;5090339;28;21014;-87
2022/01/24 11:10:23;;;;;;;0.50;0.50;;;5.40;99.90;;;;;;5089750;28;20544;-84
2022/01/24 11:12:51;;;;;;;0.40;0.40;;;5.50;99.90;;;;;;5086482;28;20535;-86
2022/01/24 11:15:19;;;;;;;0.70;0.70;;;5.60;99.90;;;;;;5088381;28;20447;-85
2022/01/24 11:17:46;;;;;;;0.30;0.20;;;5.40;99.90;;;;;;5077464;28;20944;-87
2022/01/24 11:20:18;;;;;;;0.30;0.20;;;5.40;99.90;;;;;;5090233;28;20483;-85
2022/01/24 11:22:46;;;;;;;0.30;0.10;;;5.40;99.90;;;;;;5089587;28;20463;-84
2022/01/24 11:25:15;;;;;;;0.30;0.17;;;5.40;99.90;;;;;;5091513;28;20440;-86
2022/01/24 11:27:47;;;;;;;0.30;0.30;;;5.40;99.90;;;;;;5084805;28;20458;-84
2022/01/24 11:30:16;;;;;;;0.30;0.10;;;5.50;99.90;;;;;;5087262;28;20443;-84
2022/01/24 11:32:50;;;;;;;0.50;0.40;;;5.40;99.90;;;;;;5087707;28;20432;-85
2022/01/24 11:35:31;;;;;;;0.30;0.20;;;5.60;99.90;;;;;;5087018;28;20920;-85
2022/01/24 11:37:59;;;;;;;0.30;0.20;;;5.90;99.90;;;;;;5086660;28;20464;-87
2022/01/24 11:40:27;;;;;;;0.30;0.10;;;6.00;99.90;;;;;;5096704;28;20540;-87
2022/01/24 11:42:57;;;;;;;0.40;0.30;;;5.90;99.90;;;;;;5094421;28;20439;-86
2022/01/24 11:45:44;;;;;;;0.97;0.40;;;5.90;99.90;;;;;;5093190;28;20460;-85
2022/01/24 11:48:17;;;;;;;0.30;0.20;;;5.90;99.90;;;;;;5093619;28;20806;-85
2022/01/24 11:50:54;;;;;;;0.30;0.10;;;5.80;99.90;;;;;;5093732;28;20447;-86
2022/01/24 11:53:22;;;;;;;0.40;0.40;;;5.70;99.90;;;;;;5092601;28;20451;-86
2022/01/24 11:55:50;;;;;;;0.30;0.10;;;5.70;99.90;;;;;;5089792;28;20466;-84
2022/01/24 11:58:27;;;;;;;0.30;0.10;;;5.70;99.90;;;;;;5091618;28;20535;-85
2022/01/24 12:00:56;;;;;;;0.53;0.30;;;5.90;99.90;;;;;;5082346;28;20547;-85
2022/01/24 12:03:26;;;;;;;0.30;0.20;;;6.00;99.90;;;;;;5070126;28;20444;-86
2022/01/24 12:05:56;;;;;;;1.70;1.13;;;5.90;99.90;;;;;;5069845;28;20463;-85
2022/01/24 12:08:32;;;;;;;0.30;0.20;;;5.80;99.90;;;;;;5070100;28;20447;-85
2022/01/24 12:11:13;;;;;;;0.30;0.10;;;5.90;99.90;;;;;;5071484;28;20467;-86
2022/01/24 12:13:47;;;;;;;0.30;0.10;;;5.90;99.90;;;;;;5075528;28;20459;-85
2022/01/24 12:16:16;;;;;;;0.63;0.63;;;6.00;99.90;;;;;;5090244;28;20500;-86
2022/01/24 12:19:04;;;;;;;0.30;0.10;;;5.90;99.90;;;;;;5069957;28;20514;-87
2022/01/24 12:21:33;;;;;;;0.30;0.10;;;6.00;99.90;;;;;;5069943;28;20542;-85
2022/01/24 12:24:04;;;;;;;0.40;0.30;;;5.80;99.90;;;;;;5080771;28;20455;-85
2022/01/24 12:26:34;;;;;;;0.40;0.40;;;5.60;99.90;;;;;;5094846;28;20546;-87
2022/01/24 12:29:06;;;;;;;0.30;0.20;;;5.70;99.90;;;;;;5082751;28;20443;-85
2022/01/24 12:31:36;;;;;;;0.30;0.20;;;5.40;99.90;;;;;;5093498;28;20484;-85
2022/01/24 12:34:10;;;;;;;0.30;0.10;;;5.40;99.90;;;;;;5091972;28;20500;-85
2022/01/24 12:36:51;;;;;;;0.30;0.20;;;5.50;99.90;;;;;;5084296;28;20442;-86
2022/01/24 12:39:23;;;;;;;0.40;0.23;;;5.60;99.90;;;;;;5088266;28;20490;-85
2022/01/24 12:41:56;;;;;;;0.30;0.20;;;5.80;99.90;;;;;;5089004;28;20526;-87
2022/01/24 12:47:13;;;;;;;0.30;0.10;;;6.00;99.90;;;;;;5089596;28;20940;-88
2022/01/24 12:49:41;;;;;;;0.30;0.10;;;5.90;99.90;;;;;;5089005;28;20934;-87
2022/01/24 12:52:10;;;;;;;0.40;0.40;;;5.90;99.90;;;;;;5089092;28;20441;-86
2022/01/24 12:54:44;;;;;;;0.60;0.43;;;5.90;99.90;;;;;;5070224;28;20598;-85
2022/01/24 12:57:16;;;;;;;0.30;0.10;;;5.90;99.90;;;;;;5068970;28;20452;-86
2022/01/24 12:59:55;;;;;;;0.30;0.20;;;6.00;99.90;;;;;;5068767;28;20483;-86
2022/01/24 13:02:26;;;;;;;0.77;0.30;;;5.80;99.90;;;;;;5075670;28;20548;-85
2022/01/24 13:04:59;;;;;;;0.30;0.10;;;5.90;99.90;;;;;;5089047;28;20439;-87
2022/01/24 13:07:26;;;;;;;0.30;0.20;;;6.00;99.90;;;;;;5089397;28;20438;-86
2022/01/24 13:10:04;;;;;;;1.33;0.40;;;6.20;99.90;;;;;;5088143;28;20468;-87
2022/01/24 13:12:31;;;;;;;0.30;0.10;;;6.30;99.90;;;;;;5091240;28;20534;-86
2022/01/24 13:15:04;;;;;;;0.30;0.10;;;6.50;99.90;;;;;;5092585;28;20436;-86
2022/01/24 13:23:09;;;;;;;0.30;0.20;;;6.20;99.90;;;;;;5081075;28;20513;-86
2022/01/24 13:25:37;;;;;;;0.30;0.10;;;6.10;99.90;;;;;;5092102;28;20457;-85
2022/01/24 13:28:06;;;;;;;0.30;0.10;;;6.10;99.90;;;;;;5082298;28;20457;-85
2022/01/24 13:30:39;;;;;;;0.30;0.17;;;6.20;99.90;;;;;;5072396;28;20575;-87
2022/01/24 13:33:07;;;;;;;0.30;0.10;;;6.20;99.90;;;;;;5072304;28;20896;-87
2022/01/24 13:35:37;;;;;;;0.30;0.20;;;6.00;99.90;;;;;;5076228;28;20461;-88
2022/01/24 13:38:05;;;;;;;0.57;0.57;;;6.20;99.90;;;;;;5090736;28;20980;-87
2022/01/24 13:40:38;;;;;;;0.30;0.10;;;6.10;99.90;;;;;;5091089;28;20872;-86
2022/01/24 13:43:06;;;;;;;0.30;0.10;;;5.80;99.90;;;;;;5091364;28;20442;-86
2022/01/24 13:45:36;;;;;;;0.30;0.20;;;5.90;99.90;;;;;;5090489;28;21376;-86
2022/01/24 13:48:06;;;;;;;0.30;0.10;;;6.00;99.90;;;;;;5090633;28;20442;-84
2022/01/24 13:50:34;;;;;;;0.80;0.70;;;5.90;99.90;;;;;;5090361;28;20452;-87
2022/01/24 13:53:01;;;;;;;0.30;0.20;;;5.80;99.90;;;;;;5090082;28;20506;-86
2022/01/24 13:55:28;;;;;;;0.30;0.20;;;5.90;99.90;;;;;;5092497;28;20448;-86
2022/01/24 13:57:56;;;;;;;0.30;0.10;;;5.80;99.90;;;;;;5092344;28;20475;-87
2022/01/24 14:00:26;;;;;;;0.30;0.20;;;5.80;99.90;;;;;;5091626;28;20482;-85
2022/01/24 14:03:09;;;;;;;0.70;0.50;;;5.80;99.90;;;;;;5102807;28;20460;-83
2022/01/24 14:05:36;;;;;;;0.30;0.10;;;5.80;99.90;;;;;;5086750;28;20983;-85
2022/01/24 14:08:18;;;;;;;2.30;2.00;;;5.80;99.90;;;;;;5082444;28;20451;-84
2022/01/24 14:10:46;;;;;;;0.30;0.20;;;5.80;99.90;;;;;;5084613;28;20522;-85
2022/01/24 14:13:20;;;;;;;0.30;0.10;;;5.80;99.90;;;;;;5080086;28;20458;-85
2022/01/24 14:15:54;;;;;;;0.83;0.83;;;5.70;99.90;;;;;;5077161;28;20465;-87
2022/01/24 14:18:29;;;;;;;0.30;0.20;;;5.70;99.90;;;;;;5085222;28;20537;-85
2022/01/24 14:20:57;;;;;;;0.30;0.10;;;5.80;99.90;;;;;;5089703;28;20486;-86
2022/01/24 14:23:26;;;;;;;0.40;0.20;;;5.80;99.90;;;;;;5087952;28;20535;-86
2022/01/24 14:25:53;;;;;;;0.30;0.10;;;5.80;99.90;;;;;;5089474;28;20451;-86
2022/01/24 14:28:23;;;;;;;0.30;0.10;;;5.80;99.90;;;;;;5091340;28;20490;-86
2022/01/24 14:30:55;;;;;;;0.30;0.10;;;5.80;99.90;;;;;;5091415;28;20517;-86